Time;durP1;ratioP1;P1;durP2;ratioP2;P2;SDS_P1;SDS_P2;PMS_P1;PMS_P2;Temp;Humidity;BMP_temperature;BMP_pressure;BME280_temperature;BME280_humidity;BME280_pressure;Samples;Min_cycle;Max_cycle;Signal;HPM_P1;HPM_P2
2021/12/06 00:02:10;;;;;;;6.43;3.95;;;3.70;93.30;;;;;;4969276;28;20305;-73
2021/12/06 00:04:37;;;;;;;7.57;4.55;;;3.70;93.30;;;;;;4990323;28;20202;-75
2021/12/06 00:07:07;;;;;;;7.83;4.60;;;3.70;93.30;;;;;;4971176;28;20216;-75
2021/12/06 00:09:33;;;;;;;9.77;5.40;;;3.70;93.30;;;;;;4966600;28;20465;-75
2021/12/06 00:12:01;;;;;;;10.27;5.97;;;3.80;93.30;;;;;;5002563;28;20188;-75
2021/12/06 00:14:30;;;;;;;11.60;5.90;;;3.70;93.20;;;;;;4957094;28;20479;-73
2021/12/06 00:17:02;;;;;;;10.83;5.27;;;3.70;93.30;;;;;;4956017;28;20179;-73
2021/12/06 00:19:29;;;;;;;11.68;5.25;;;3.70;93.50;;;;;;4963552;28;20420;-75
2021/12/06 00:21:57;;;;;;;12.83;6.57;;;3.80;93.50;;;;;;4962696;28;20266;-74
2021/12/06 00:24:22;;;;;;;9.80;5.32;;;3.90;93.40;;;;;;4965730;28;20435;-73
2021/12/06 00:26:48;;;;;;;11.40;6.93;;;3.80;93.30;;;;;;4963982;28;20195;-74
2021/12/06 00:29:14;;;;;;;11.17;6.03;;;3.80;93.20;;;;;;4962861;28;20467;-74
2021/12/06 00:31:40;;;;;;;12.40;6.22;;;3.90;93.20;;;;;;4968560;28;20678;-75
2021/12/06 00:34:12;;;;;;;11.83;6.20;;;3.90;93.10;;;;;;4965073;28;20289;-73
2021/12/06 00:36:40;;;;;;;14.73;8.23;;;3.90;93.00;;;;;;4964236;28;20446;-74
2021/12/06 00:39:11;;;;;;;13.80;7.70;;;3.80;93.00;;;;;;4963859;28;20459;-75
2021/12/06 00:41:37;;;;;;;10.13;6.80;;;3.70;93.10;;;;;;4964760;28;20183;-74
2021/12/06 00:44:04;;;;;;;13.18;8.07;;;3.70;93.30;;;;;;4974324;28;20477;-73
2021/12/06 00:46:29;;;;;;;9.00;7.20;;;3.80;93.50;;;;;;4966140;28;20187;-73
2021/12/06 00:48:55;;;;;;;11.40;7.43;;;3.80;93.50;;;;;;4973944;28;20480;-74
2021/12/06 00:51:21;;;;;;;17.20;9.20;;;3.90;93.40;;;;;;4970839;28;20418;-74
2021/12/06 00:53:47;;;;;;;9.83;6.20;;;3.90;93.20;;;;;;4969779;28;20218;-73
2021/12/06 00:56:13;;;;;;;14.53;7.23;;;3.90;93.00;;;;;;4973020;28;20993;-74
2021/12/06 00:58:38;;;;;;;13.60;6.20;;;3.90;93.00;;;;;;5023499;28;20212;-73
2021/12/06 01:01:07;;;;;;;13.07;7.10;;;3.80;93.00;;;;;;4964267;28;20267;-74
2021/12/06 01:03:35;;;;;;;11.73;6.40;;;3.80;93.00;;;;;;4965560;28;20431;-75
2021/12/06 01:06:02;;;;;;;12.20;7.03;;;3.80;93.10;;;;;;5036718;28;20765;-75
2021/12/06 01:08:28;;;;;;;12.07;6.30;;;3.80;93.10;;;;;;4962202;28;20821;-75
2021/12/06 01:10:55;;;;;;;12.67;7.73;;;3.80;93.20;;;;;;4963004;28;20195;-74
2021/12/06 01:13:21;;;;;;;9.63;5.80;;;3.80;93.30;;;;;;4956999;28;20243;-74
2021/12/06 01:15:47;;;;;;;11.00;8.43;;;3.80;93.40;;;;;;4960849;28;20240;-75
2021/12/06 01:18:17;;;;;;;11.90;6.40;;;3.90;93.40;;;;;;4962806;28;20514;-74
2021/12/06 01:21:00;;;;;;;11.23;6.75;;;3.90;93.40;;;;;;4961348;28;20484;-75
2021/12/06 01:23:31;;;;;;;12.90;6.75;;;3.90;93.20;;;;;;4963193;28;20184;-74
2021/12/06 01:41:16;;;;;;;12.10;7.95;;;3.70;93.40;;;;;;4970216;28;20195;-75
2021/12/06 01:44:10;;;;;;;19.40;9.50;;;3.70;93.50;;;;;;4967702;28;20210;-74
2021/12/06 01:46:39;;;;;;;14.15;9.05;;;3.70;93.50;;;;;;5004314;28;20187;-76
2021/12/06 01:49:06;;;;;;;13.65;9.15;;;3.60;93.50;;;;;;4974599;28;20188;-75
2021/12/06 01:51:33;;;;;;;17.52;10.38;;;3.50;93.50;;;;;;4969659;28;20191;-73
2021/12/06 01:53:59;;;;;;;15.52;9.93;;;3.50;93.70;;;;;;4970841;28;20604;-74
2021/12/06 01:56:25;;;;;;;12.80;8.57;;;3.50;93.80;;;;;;4970037;28;20179;-74
2021/12/06 01:58:51;;;;;;;15.15;9.60;;;3.50;94.00;;;;;;5003072;28;20438;-74
2021/12/06 02:01:17;;;;;;;15.18;8.65;;;3.60;94.10;;;;;;5021235;28;20187;-74
2021/12/06 02:03:43;;;;;;;13.70;10.17;;;3.60;93.80;;;;;;4975860;28;20203;-74
2021/12/06 02:06:09;;;;;;;14.60;9.60;;;3.70;93.90;;;;;;4977316;28;20187;-74
2021/12/06 02:08:35;;;;;;;15.20;9.00;;;3.70;93.90;;;;;;4991602;28;20439;-75
2021/12/06 02:11:03;;;;;;;18.20;11.70;;;3.80;94.00;;;;;;5059477;28;20274;-75
2021/12/06 02:13:35;;;;;;;18.13;11.00;;;3.90;93.90;;;;;;4979841;28;20581;-74
2021/12/06 02:16:03;;;;;;;20.10;11.65;;;4.00;93.50;;;;;;4977175;28;20420;-74
2021/12/06 02:18:49;;;;;;;13.47;8.27;;;4.00;93.10;;;;;;4997729;28;20257;-76
2021/12/06 02:21:29;;;;;;;13.85;9.10;;;4.00;93.00;;;;;;4967270;28;20411;-73
2021/12/06 02:23:55;;;;;;;15.47;9.30;;;4.00;92.80;;;;;;4972910;28;20186;-75
2021/12/06 02:26:22;;;;;;;13.73;9.73;;;4.00;92.80;;;;;;5009098;28;20496;-73
2021/12/06 02:28:48;;;;;;;19.00;11.27;;;4.00;92.90;;;;;;4996751;28;20457;-76
2021/12/06 02:31:16;;;;;;;14.63;8.57;;;3.90;92.90;;;;;;4974105;28;20441;-76
2021/12/06 02:33:45;;;;;;;15.10;9.57;;;3.90;93.10;;;;;;4976882;28;20862;-76
2021/12/06 02:36:11;;;;;;;17.27;10.98;;;3.90;93.20;;;;;;4978349;28;20653;-75
2021/12/06 02:38:37;;;;;;;20.70;12.40;;;4.00;93.10;;;;;;4972385;28;20230;-75
2021/12/06 02:41:06;;;;;;;26.93;14.20;;;3.90;92.80;;;;;;4968937;28;20426;-74
2021/12/06 02:43:34;;;;;;;19.80;11.40;;;3.90;92.50;;;;;;4959796;28;20430;-74
2021/12/06 02:45:59;;;;;;;22.07;9.93;;;3.90;92.50;;;;;;4962214;28;20435;-74
2021/12/06 02:48:25;;;;;;;19.90;12.30;;;4.00;92.80;;;;;;4960238;28;20447;-76
2021/12/06 02:50:54;;;;;;;16.77;10.37;;;4.00;92.90;;;;;;4963427;28;20187;-74
2021/12/06 02:53:22;;;;;;;16.75;9.45;;;4.00;93.10;;;;;;4966169;28;20428;-77
2021/12/06 02:55:53;;;;;;;14.27;9.37;;;4.00;93.00;;;;;;4971405;28;20191;-75
2021/12/06 03:01:09;;;;;;;16.40;9.38;;;4.10;93.00;;;;;;4961571;28;20448;-74
2021/12/06 03:03:35;;;;;;;21.73;12.57;;;4.10;92.80;;;;;;4959134;28;20303;-74
2021/12/06 03:06:01;;;;;;;23.90;11.70;;;4.10;92.70;;;;;;4964976;28;20267;-75
2021/12/06 03:08:38;;;;;;;20.97;12.20;;;4.10;92.50;;;;;;4957214;28;20514;-76
2021/12/06 03:11:07;;;;;;;21.70;13.43;;;4.10;92.30;;;;;;4961691;28;20200;-75
2021/12/06 03:13:33;;;;;;;19.70;12.65;;;3.90;92.30;;;;;;4964123;28;20199;-75
2021/12/06 03:15:59;;;;;;;21.77;13.07;;;3.80;92.70;;;;;;4959694;28;20199;-75
2021/12/06 03:18:25;;;;;;;19.23;12.57;;;3.90;93.00;;;;;;4961596;28;20865;-74
2021/12/06 03:20:50;;;;;;;19.07;11.70;;;3.90;93.20;;;;;;4961868;28;20454;-73
2021/12/06 03:23:16;;;;;;;30.23;15.73;;;3.90;93.20;;;;;;4964860;28;20194;-74
2021/12/06 03:25:44;;;;;;;22.00;13.20;;;3.90;93.10;;;;;;4976612;28;20423;-75
2021/12/06 03:28:10;;;;;;;24.80;14.50;;;3.80;93.10;;;;;;5016120;28;20653;-74
2021/12/06 03:30:36;;;;;;;23.27;14.03;;;3.70;93.20;;;;;;4963777;28;20192;-75
2021/12/06 03:33:02;;;;;;;23.30;13.50;;;3.70;93.30;;;;;;4957799;28;20442;-75
2021/12/06 03:35:28;;;;;;;27.20;15.77;;;3.70;93.50;;;;;;4959766;28;20482;-75
2021/12/06 03:37:54;;;;;;;26.07;14.13;;;3.70;93.50;;;;;;4959720;28;20626;-75
2021/12/06 03:40:19;;;;;;;24.13;13.97;;;3.70;93.50;;;;;;4979444;28;20430;-73
2021/12/06 03:42:45;;;;;;;25.40;15.37;;;3.70;93.60;;;;;;4969379;28;20251;-73
2021/12/06 03:45:11;;;;;;;26.87;15.23;;;3.70;93.70;;;;;;4965953;28;20265;-74
2021/12/06 03:47:38;;;;;;;26.08;16.63;;;3.60;93.70;;;;;;4964329;28;20219;-74
2021/12/06 03:50:07;;;;;;;38.80;18.60;;;3.60;93.80;;;;;;4963041;28;20207;-74
2021/12/06 03:52:33;;;;;;;31.77;16.80;;;3.60;93.90;;;;;;4966246;28;20242;-74
2021/12/06 03:54:59;;;;;;;31.20;17.85;;;3.50;94.10;;;;;;4965913;28;20561;-72
2021/12/06 03:57:25;;;;;;;31.60;17.83;;;3.50;94.20;;;;;;4971085;28;20199;-73
2021/12/06 03:59:52;;;;;;;31.80;18.23;;;3.50;94.20;;;;;;4967552;28;20418;-72
2021/12/06 04:02:21;;;;;;;36.70;20.10;;;3.40;94.30;;;;;;4964781;28;20513;-72
2021/12/06 04:04:47;;;;;;;34.67;19.17;;;3.40;94.50;;;;;;4980697;28;20230;-72
2021/12/06 04:07:13;;;;;;;38.50;19.27;;;3.50;94.60;;;;;;4966354;28;20236;-75
2021/12/06 04:09:39;;;;;;;33.33;19.15;;;3.50;94.60;;;;;;4966835;28;20450;-75
2021/12/06 04:12:08;;;;;;;32.70;17.67;;;3.40;94.50;;;;;;4962062;28;20184;-75
2021/12/06 04:14:34;;;;;;;28.02;18.05;;;3.40;94.60;;;;;;4958350;28;20770;-74
2021/12/06 04:17:00;;;;;;;36.75;19.42;;;3.50;94.70;;;;;;4962431;28;20207;-74
2021/12/06 04:19:25;;;;;;;32.60;19.93;;;3.60;94.80;;;;;;5003348;28;20211;-75
2021/12/06 04:21:51;;;;;;;37.23;19.00;;;3.70;94.70;;;;;;4964235;28;20186;-74
2021/12/06 04:24:17;;;;;;;35.47;19.07;;;3.70;94.60;;;;;;4963069;28;20192;-73
2021/12/06 04:26:44;;;;;;;37.80;19.38;;;3.70;94.50;;;;;;4971719;28;20207;-75
2021/12/06 04:29:11;;;;;;;34.92;20.25;;;3.70;94.20;;;;;;4960579;28;20187;-75
2021/12/06 04:31:41;;;;;;;37.25;20.42;;;3.60;94.20;;;;;;4965013;28;20207;-72
2021/12/06 04:34:07;;;;;;;40.67;20.05;;;3.60;94.20;;;;;;4960822;28;20204;-75
2021/12/06 04:36:33;;;;;;;38.73;19.93;;;3.60;94.30;;;;;;4967592;28;20267;-76
2021/12/06 04:38:59;;;;;;;36.92;19.15;;;3.60;94.40;;;;;;4961934;28;20440;-74
2021/12/06 04:41:25;;;;;;;34.33;19.20;;;3.60;94.50;;;;;;4965403;28;20191;-74
2021/12/06 04:43:52;;;;;;;42.90;19.48;;;3.60;94.40;;;;;;4965000;28;20430;-73
2021/12/06 04:46:18;;;;;;;39.67;19.20;;;3.70;94.50;;;;;;4965667;28;20219;-74
2021/12/06 04:48:43;;;;;;;42.20;20.73;;;3.60;94.40;;;;;;4971969;28;20230;-74
2021/12/06 04:51:09;;;;;;;47.17;21.53;;;3.60;94.60;;;;;;4975569;28;20434;-75
2021/12/06 04:53:37;;;;;;;39.78;20.40;;;3.60;94.60;;;;;;4968261;28;20471;-75
2021/12/06 04:56:26;;;;;;;35.08;18.13;;;3.60;94.80;;;;;;4968407;28;20190;-74
2021/12/06 04:59:10;;;;;;;45.22;19.38;;;3.60;94.80;;;;;;4971866;28;20345;-74
2021/12/06 05:01:37;;;;;;;40.45;19.52;;;3.70;94.70;;;;;;4967659;28;20561;-74
2021/12/06 05:04:09;;;;;;;42.40;20.70;;;3.70;94.70;;;;;;4962290;28;20187;-74
2021/12/06 05:06:37;;;;;;;42.58;19.48;;;3.70;94.70;;;;;;4963871;28;20290;-73
2021/12/06 05:09:12;;;;;;;43.05;19.42;;;3.70;94.70;;;;;;4969295;28;20199;-75
2021/12/06 05:11:38;;;;;;;41.17;18.57;;;3.80;94.60;;;;;;4975397;28;20634;-75
2021/12/06 05:14:05;;;;;;;35.30;17.30;;;3.80;94.60;;;;;;4996884;28;20469;-74
2021/12/06 05:16:33;;;;;;;34.38;16.02;;;3.90;94.50;;;;;;4966327;28;20411;-75
2021/12/06 05:18:59;;;;;;;34.28;16.70;;;3.90;94.30;;;;;;4965280;28;20214;-74
2021/12/06 05:21:25;;;;;;;29.43;15.70;;;3.90;94.30;;;;;;4965677;28;20186;-74
2021/12/06 05:23:51;;;;;;;34.42;17.45;;;3.90;94.30;;;;;;4964431;28;20950;-73
2021/12/06 05:26:17;;;;;;;32.00;15.70;;;3.80;94.20;;;;;;4963321;28;20272;-74
2021/12/06 05:28:44;;;;;;;34.57;16.97;;;3.80;94.20;;;;;;4963523;28;20836;-73
2021/12/06 05:31:17;;;;;;;36.97;17.90;;;3.80;94.20;;;;;;4962098;28;21057;-75
2021/12/06 05:33:47;;;;;;;38.97;18.17;;;3.80;94.20;;;;;;4963796;28;22048;-75
2021/12/06 05:36:14;;;;;;;39.47;20.35;;;3.80;94.30;;;;;;4967020;28;20275;-74
2021/12/06 05:38:40;;;;;;;37.25;17.70;;;3.70;94.20;;;;;;4961531;28;20264;-72
2021/12/06 05:41:06;;;;;;;35.17;18.00;;;3.60;94.30;;;;;;4968893;28;20191;-74
2021/12/06 05:43:33;;;;;;;36.77;18.63;;;3.60;94.40;;;;;;4989771;28;20431;-75
2021/12/06 05:46:01;;;;;;;42.88;18.75;;;3.50;94.40;;;;;;4967241;28;20518;-74
2021/12/06 05:48:27;;;;;;;35.03;18.27;;;3.60;94.60;;;;;;4970457;28;20215;-72
2021/12/06 05:50:53;;;;;;;38.10;17.40;;;3.60;94.60;;;;;;4970075;28;20190;-75
2021/12/06 05:53:19;;;;;;;37.43;18.13;;;3.70;94.50;;;;;;4966177;28;20435;-73
2021/12/06 05:55:46;;;;;;;35.05;16.55;;;3.60;94.40;;;;;;4975519;28;20478;-75
2021/12/06 05:58:15;;;;;;;36.85;18.40;;;3.60;94.30;;;;;;4980256;28;20704;-73
2021/12/06 06:00:42;;;;;;;35.75;16.70;;;3.50;94.30;;;;;;4969350;28;20191;-76
2021/12/06 06:03:09;;;;;;;40.05;17.60;;;3.50;94.50;;;;;;4964297;28;20518;-75
2021/12/06 06:05:35;;;;;;;36.08;16.50;;;3.50;94.40;;;;;;4966774;28;20186;-75
2021/12/06 06:08:02;;;;;;;33.50;15.85;;;3.50;94.50;;;;;;4966141;28;20577;-75
2021/12/06 06:10:30;;;;;;;31.65;14.82;;;3.50;94.50;;;;;;4963764;28;20195;-73
2021/12/06 06:12:57;;;;;;;37.35;16.98;;;3.50;94.70;;;;;;4975473;28;20684;-75
2021/12/06 06:15:23;;;;;;;36.83;16.88;;;3.50;94.60;;;;;;4962036;28;20376;-73
2021/12/06 06:17:49;;;;;;;36.23;16.47;;;3.60;94.40;;;;;;4985950;28;20705;-73
2021/12/06 06:20:41;;;;;;;31.40;15.80;;;3.60;94.30;;;;;;4959561;28;20187;-75
2021/12/06 06:23:07;;;;;;;30.85;15.50;;;3.60;94.20;;;;;;4958063;28;20720;-76
2021/12/06 06:25:33;;;;;;;31.30;15.23;;;3.60;94.20;;;;;;4961153;28;20670;-73
2021/12/06 06:28:00;;;;;;;31.87;17.47;;;3.60;94.30;;;;;;4956506;28;20213;-75
2021/12/06 06:30:26;;;;;;;35.78;16.45;;;3.60;94.30;;;;;;4961967;28;20470;-76
2021/12/06 06:32:52;;;;;;;39.57;18.10;;;3.60;94.40;;;;;;4963456;28;20270;-72
2021/12/06 06:35:20;;;;;;;34.72;16.75;;;3.60;94.30;;;;;;4958027;28;20463;-73
2021/12/06 06:37:46;;;;;;;31.70;16.02;;;3.50;94.30;;;;;;4961590;28;20201;-73
2021/12/06 06:40:13;;;;;;;37.78;17.23;;;3.50;94.50;;;;;;4956901;28;20271;-73
2021/12/06 06:42:39;;;;;;;36.80;17.23;;;3.50;94.60;;;;;;5011717;28;20266;-74
2021/12/06 06:45:07;;;;;;;38.38;18.55;;;3.50;94.70;;;;;;4965832;28;20593;-74
2021/12/06 06:47:32;;;;;;;40.30;17.45;;;3.50;94.70;;;;;;4960303;28;20215;-74
2021/12/06 06:49:59;;;;;;;35.70;16.90;;;3.50;94.70;;;;;;4968441;28;20218;-75
2021/12/06 06:52:24;;;;;;;40.72;18.83;;;3.50;94.70;;;;;;4967382;28;20191;-76
2021/12/06 06:54:50;;;;;;;33.63;17.87;;;3.50;94.90;;;;;;4972216;28;20302;-76
2021/12/06 06:57:16;;;;;;;44.60;17.85;;;3.50;94.90;;;;;;4966796;28;20218;-75
2021/12/06 06:59:42;;;;;;;40.10;17.87;;;3.40;95.00;;;;;;4956557;28;20184;-75
2021/12/06 07:02:08;;;;;;;43.30;17.55;;;3.50;95.00;;;;;;4959458;28;20796;-74
2021/12/06 07:04:34;;;;;;;36.47;16.70;;;3.50;95.10;;;;;;4960726;28;20246;-74
2021/12/06 07:07:00;;;;;;;40.33;17.33;;;3.50;95.10;;;;;;4965427;28;20199;-74
2021/12/06 07:09:26;;;;;;;32.90;17.30;;;3.40;95.10;;;;;;4959252;28;20204;-76
2021/12/06 07:11:52;;;;;;;41.97;16.30;;;3.40;95.10;;;;;;4975708;28;20897;-73
2021/12/06 07:14:18;;;;;;;39.05;16.70;;;3.40;95.20;;;;;;4968580;28;20247;-75
2021/12/06 07:16:47;;;;;;;43.83;17.30;;;3.40;95.30;;;;;;4959976;28;20605;-74
2021/12/06 07:19:13;;;;;;;43.10;17.50;;;3.30;95.40;;;;;;4967328;28;20202;-74
2021/12/06 07:21:39;;;;;;;47.92;19.10;;;3.40;95.40;;;;;;4958456;28;20191;-76
2021/12/06 07:24:05;;;;;;;41.37;18.07;;;3.30;95.50;;;;;;4961778;28;20192;-75
2021/12/06 07:26:31;;;;;;;38.13;16.88;;;3.40;95.60;;;;;;4954667;28;20215;-77
2021/12/06 07:28:57;;;;;;;43.85;18.10;;;3.40;95.60;;;;;;4960265;28;20252;-76
2021/12/06 07:31:25;;;;;;;41.30;16.53;;;3.40;95.80;;;;;;4962724;28;20199;-76
2021/12/06 07:33:52;;;;;;;37.63;16.60;;;3.40;95.60;;;;;;4970014;28;20507;-77
2021/12/06 07:36:20;;;;;;;39.35;16.58;;;3.40;95.60;;;;;;4960301;28;20183;-75
2021/12/06 07:38:46;;;;;;;48.65;18.90;;;3.50;95.80;;;;;;4960008;28;20785;-75
2021/12/06 07:41:15;;;;;;;40.83;17.00;;;3.60;95.50;;;;;;4964280;28;20198;-76
2021/12/06 07:43:41;;;;;;;33.92;15.85;;;3.60;95.50;;;;;;4959087;28;21155;-76
2021/12/06 07:46:08;;;;;;;38.27;15.53;;;3.60;95.30;;;;;;4966447;28;20202;-77
2021/12/06 07:48:34;;;;;;;36.40;15.98;;;3.60;95.10;;;;;;4964005;28;20553;-75
2021/12/06 07:51:05;;;;;;;42.85;16.92;;;3.60;95.00;;;;;;4975967;28;20195;-76
2021/12/06 07:53:32;;;;;;;35.43;16.30;;;3.60;94.90;;;;;;4977066;28;20274;-76
2021/12/06 07:55:58;;;;;;;36.57;16.00;;;3.60;94.90;;;;;;4976182;28;20419;-75
2021/12/06 07:58:25;;;;;;;36.23;14.80;;;3.70;95.00;;;;;;4974014;28;20538;-76
2021/12/06 08:00:52;;;;;;;33.63;15.40;;;3.70;94.90;;;;;;5017314;28;20460;-75
2021/12/06 08:03:21;;;;;;;33.10;14.90;;;3.80;94.80;;;;;;5029878;28;20431;-76
2021/12/06 08:05:49;;;;;;;33.77;15.60;;;3.90;94.50;;;;;;4972975;28;20419;-74
2021/12/06 08:08:24;;;;;;;43.75;16.67;;;3.90;94.30;;;;;;4975733;28;20534;-74
2021/12/06 08:11:02;;;;;;;30.80;14.80;;;3.90;94.10;;;;;;4997778;28;20195;-74
2021/12/06 08:13:30;;;;;;;34.53;15.27;;;3.90;93.90;;;;;;5005842;28;20427;-75
2021/12/06 08:15:59;;;;;;;29.13;14.50;;;3.60;93.70;;;;;;4968985;28;20418;-74
2021/12/06 08:18:25;;;;;;;33.72;13.82;;;3.60;94.30;;;;;;4971734;28;20915;-73
2021/12/06 08:20:51;;;;;;;38.13;14.10;;;3.70;94.40;;;;;;4965487;28;20175;-74
2021/12/06 08:23:18;;;;;;;31.50;14.95;;;3.80;94.10;;;;;;4994981;28;20430;-75
2021/12/06 08:25:49;;;;;;;38.00;15.40;;;3.80;93.90;;;;;;5007363;28;20256;-75
2021/12/06 08:28:16;;;;;;;30.10;13.90;;;3.80;94.00;;;;;;5003039;28;20204;-75
2021/12/06 08:30:42;;;;;;;31.40;14.70;;;3.90;94.00;;;;;;4990428;28;20427;-73
2021/12/06 08:33:09;;;;;;;33.67;14.55;;;3.90;94.00;;;;;;5008002;28;20441;-73
2021/12/06 08:35:40;;;;;;;32.53;13.17;;;4.00;94.00;;;;;;4980662;28;20613;-76
2021/12/06 08:38:08;;;;;;;31.83;13.87;;;3.90;93.80;;;;;;5008563;28;20454;-74
2021/12/06 08:40:34;;;;;;;24.20;13.20;;;4.00;93.60;;;;;;5018222;28;20435;-76
2021/12/06 08:43:01;;;;;;;30.30;13.93;;;4.10;93.60;;;;;;5011517;28;20411;-74
2021/12/06 08:45:28;;;;;;;32.83;14.80;;;4.20;93.50;;;;;;4965394;28;20459;-75
2021/12/06 08:47:55;;;;;;;33.30;13.77;;;4.20;93.10;;;;;;4980659;28;20438;-75
2021/12/06 08:50:24;;;;;;;30.40;14.87;;;4.20;93.00;;;;;;4968766;28;20438;-75
2021/12/06 08:52:51;;;;;;;34.03;14.20;;;4.30;92.80;;;;;;4966923;28;20944;-76
2021/12/06 08:55:18;;;;;;;30.70;13.13;;;4.30;92.80;;;;;;4962161;28;20466;-74
2021/12/06 08:57:44;;;;;;;29.50;13.20;;;4.30;92.50;;;;;;4968201;28;20477;-76
2021/12/06 09:00:14;;;;;;;27.90;13.00;;;4.30;92.80;;;;;;4964995;28;21107;-73
2021/12/06 09:02:41;;;;;;;27.33;12.20;;;4.40;92.70;;;;;;5017358;28;20430;-74
2021/12/06 09:05:08;;;;;;;29.80;12.87;;;4.30;92.40;;;;;;4973042;28;20445;-75
2021/12/06 09:07:34;;;;;;;30.33;12.40;;;4.40;92.40;;;;;;4969224;28;20495;-74
2021/12/06 09:10:00;;;;;;;34.47;14.20;;;4.60;92.20;;;;;;4967266;28;20454;-74
2021/12/06 09:12:28;;;;;;;29.13;13.90;;;4.70;91.90;;;;;;4986154;28;20427;-75
2021/12/06 09:14:58;;;;;;;26.47;12.50;;;4.60;91.60;;;;;;4994616;28;20462;-74
2021/12/06 09:17:24;;;;;;;32.10;13.17;;;4.50;91.50;;;;;;4965080;28;20525;-75
2021/12/06 09:19:50;;;;;;;27.80;12.47;;;4.60;92.00;;;;;;5022613;28;20449;-75
2021/12/06 09:22:18;;;;;;;29.50;12.53;;;4.80;91.50;;;;;;4998614;28;20514;-74
2021/12/06 09:24:44;;;;;;;21.43;11.40;;;4.90;91.00;;;;;;4978447;28;20424;-76
2021/12/06 09:27:10;;;;;;;25.80;10.83;;;4.90;90.60;;;;;;5023123;28;20438;-74
2021/12/06 09:29:36;;;;;;;25.87;11.07;;;4.80;90.80;;;;;;4974780;28;20432;-75
2021/12/06 09:32:09;;;;;;;29.97;11.97;;;4.80;91.10;;;;;;4971424;28;20448;-75
2021/12/06 09:34:39;;;;;;;29.97;12.53;;;4.90;91.00;;;;;;4965130;28;20681;-75
2021/12/06 09:37:06;;;;;;;28.63;13.47;;;5.00;90.70;;;;;;5026313;28;20815;-74
2021/12/06 09:39:32;;;;;;;28.33;13.07;;;5.10;90.50;;;;;;4968015;28;20417;-75
2021/12/06 09:41:59;;;;;;;31.20;12.90;;;5.00;90.40;;;;;;4968933;28;20407;-75
2021/12/06 09:44:25;;;;;;;24.50;11.87;;;5.00;90.50;;;;;;4962082;28;20461;-74
2021/12/06 09:46:51;;;;;;;30.40;12.20;;;4.90;90.60;;;;;;4986186;28;20563;-75
2021/12/06 09:49:20;;;;;;;21.07;11.67;;;4.90;90.80;;;;;;4973327;28;20514;-74
2021/12/06 09:52:06;;;;;;;36.10;13.87;;;4.90;90.70;;;;;;4969533;28;20430;-76
2021/12/06 09:54:37;;;;;;;25.17;11.47;;;5.00;90.80;;;;;;5009621;28;20535;-75
2021/12/06 09:57:04;;;;;;;29.47;12.90;;;5.10;90.80;;;;;;4992354;28;20946;-74
2021/12/06 09:59:32;;;;;;;30.37;12.63;;;5.10;90.50;;;;;;5003213;28;20458;-75
2021/12/06 10:02:02;;;;;;;25.13;12.10;;;5.10;90.40;;;;;;4962937;28;21156;-74
2021/12/06 10:04:31;;;;;;;29.27;13.33;;;5.10;90.10;;;;;;5020623;28;21103;-75
2021/12/06 10:06:58;;;;;;;30.33;12.90;;;4.90;90.00;;;;;;5029176;28;20431;-77
2021/12/06 10:09:25;;;;;;;30.00;11.37;;;4.90;90.30;;;;;;4970362;28;20447;-76
2021/12/06 10:11:53;;;;;;;23.93;11.37;;;5.00;90.20;;;;;;4962919;28;20508;-77
2021/12/06 10:14:20;;;;;;;23.97;10.90;;;5.00;90.10;;;;;;4975900;28;20466;-74
2021/12/06 10:16:45;;;;;;;22.97;10.70;;;5.00;89.90;;;;;;4969765;28;20415;-75
2021/12/06 10:19:13;;;;;;;30.40;13.13;;;5.00;89.90;;;;;;5002075;28;20421;-75
2021/12/06 10:21:39;;;;;;;25.03;10.77;;;5.10;89.90;;;;;;5025327;28;20791;-74
2021/12/06 10:24:11;;;;;;;25.43;11.50;;;5.20;89.60;;;;;;5023931;28;20544;-74
2021/12/06 10:26:37;;;;;;;23.70;11.57;;;5.10;88.40;;;;;;4958977;28;20534;-74
2021/12/06 10:29:20;;;;;;;26.00;10.30;;;5.00;89.20;;;;;;4966446;28;20443;-75
2021/12/06 10:31:48;;;;;;;22.20;10.43;;;5.10;89.00;;;;;;4969180;28;20426;-74
2021/12/06 10:34:18;;;;;;;22.80;10.97;;;5.20;88.90;;;;;;5011579;28;20569;-73
2021/12/06 10:36:43;;;;;;;25.93;10.03;;;5.40;88.10;;;;;;5038951;28;20441;-74
2021/12/06 10:39:10;;;;;;;23.33;10.77;;;5.30;87.30;;;;;;4967013;28;20917;-75
2021/12/06 10:41:38;;;;;;;19.30;9.10;;;5.40;87.40;;;;;;4981753;28;20184;-74
2021/12/06 10:44:11;;;;;;;19.80;9.40;;;5.60;87.00;;;;;;4962791;28;20430;-74
2021/12/06 10:46:47;;;;;;;24.20;10.40;;;5.60;86.50;;;;;;4970366;28;20878;-76
2021/12/06 10:49:16;;;;;;;16.50;8.17;;;5.70;85.70;;;;;;5001536;28;20916;-74
2021/12/06 10:51:42;;;;;;;21.03;8.83;;;5.80;84.70;;;;;;4988462;28;20439;-75
2021/12/06 10:54:19;;;;;;;19.30;9.20;;;5.80;84.60;;;;;;4998222;28;20454;-75
2021/12/06 10:56:48;;;;;;;17.60;8.47;;;6.00;84.40;;;;;;4984112;28;20426;-74
2021/12/06 10:59:21;;;;;;;14.60;7.73;;;5.90;83.60;;;;;;4969383;28;20862;-74
2021/12/06 11:01:49;;;;;;;20.17;8.80;;;5.60;84.10;;;;;;4957720;28;20450;-76
2021/12/06 11:04:20;;;;;;;15.57;7.50;;;5.60;85.20;;;;;;4972739;28;20430;-73
2021/12/06 11:06:50;;;;;;;16.90;7.57;;;5.80;84.70;;;;;;4984640;28;20426;-73
2021/12/06 11:09:22;;;;;;;13.20;6.90;;;5.80;83.70;;;;;;4992143;28;20446;-75
2021/12/06 11:11:51;;;;;;;15.27;7.20;;;5.70;83.40;;;;;;4987118;28;20472;-74
2021/12/06 11:14:23;;;;;;;13.00;7.17;;;5.70;83.40;;;;;;4992712;28;20542;-74
2021/12/06 11:16:53;;;;;;;13.30;6.50;;;5.70;83.00;;;;;;5021628;28;20422;-75
2021/12/06 11:19:22;;;;;;;14.43;7.10;;;5.60;82.50;;;;;;4973860;28;20468;-74
2021/12/06 11:21:50;;;;;;;19.87;7.40;;;5.60;82.80;;;;;;5017619;28;20473;-73
2021/12/06 11:24:24;;;;;;;12.40;6.33;;;5.60;82.70;;;;;;4977088;28;20445;-75
2021/12/06 11:27:05;;;;;;;10.30;5.23;;;5.60;82.80;;;;;;4975955;28;20524;-75
2021/12/06 11:29:35;;;;;;;13.37;6.00;;;5.60;82.70;;;;;;4969903;28;20499;-75
2021/12/06 11:32:24;;;;;;;19.70;7.00;;;5.70;82.70;;;;;;4977308;28;20426;-75
2021/12/06 11:34:56;;;;;;;16.00;6.57;;;5.80;81.90;;;;;;4978688;28;20563;-75
2021/12/06 11:37:23;;;;;;;14.10;6.43;;;6.00;81.40;;;;;;4986510;28;20567;-75
2021/12/06 11:40:17;;;;;;;17.53;7.07;;;6.00;80.90;;;;;;4973329;28;20423;-75
2021/12/06 11:43:03;;;;;;;13.30;6.03;;;6.20;80.20;;;;;;4977364;28;20418;-75
2021/12/06 11:45:43;;;;;;;11.33;6.20;;;6.10;79.90;;;;;;4982857;28;20475;-75
2021/12/06 11:48:15;;;;;;;11.57;5.67;;;6.10;80.20;;;;;;4979348;28;20442;-75
2021/12/06 11:50:45;;;;;;;8.60;5.50;;;6.30;79.90;;;;;;4965605;28;20485;-74
2021/12/06 11:53:11;;;;;;;12.07;5.60;;;6.50;79.90;;;;;;4964022;28;20419;-75
2021/12/06 11:55:43;;;;;;;13.00;6.13;;;6.60;78.10;;;;;;4968893;28;20473;-74
2021/12/06 11:58:33;;;;;;;10.80;5.70;;;6.70;77.40;;;;;;4969924;28;20447;-75
2021/12/06 12:01:31;;;;;;;11.40;5.97;;;6.70;76.80;;;;;;4958061;28;20423;-75
2021/12/06 12:04:09;;;;;;;15.63;6.53;;;6.60;77.10;;;;;;4961643;28;20431;-76
2021/12/06 12:06:49;;;;;;;12.67;6.13;;;6.70;77.40;;;;;;4969188;28;20440;-74
2021/12/06 12:09:21;;;;;;;12.43;6.30;;;6.60;77.30;;;;;;4965631;28;20591;-76
2021/12/06 12:12:09;;;;;;;10.50;6.13;;;6.50;77.00;;;;;;4967118;28;20419;-75
2021/12/06 12:14:55;;;;;;;9.37;5.27;;;6.50;77.30;;;;;;4966204;28;20973;-75
2021/12/06 12:24:05;;;;;;;9.13;4.40;;;7.00;75.40;;;;;;4965883;28;20445;-75
2021/12/06 12:26:31;;;;;;;8.93;4.30;;;7.20;74.30;;;;;;4967507;28;20427;-75
2021/12/06 12:29:12;;;;;;;10.20;5.50;;;7.10;73.60;;;;;;4966256;28;20940;-75
2021/12/06 12:31:38;;;;;;;9.27;4.77;;;7.00;74.30;;;;;;4969129;28;20427;-75
2021/12/06 12:34:04;;;;;;;8.73;4.40;;;7.00;74.30;;;;;;4970809;28;20462;-75
2021/12/06 12:36:34;;;;;;;8.90;4.80;;;7.00;74.50;;;;;;4967665;28;20419;-75
2021/12/06 12:39:00;;;;;;;8.73;4.47;;;6.80;74.50;;;;;;4966248;28;20431;-76
2021/12/06 12:41:33;;;;;;;5.10;3.47;;;6.90;74.90;;;;;;4972034;28;20453;-76
2021/12/06 12:44:07;;;;;;;8.13;3.97;;;6.90;74.80;;;;;;4972963;28;20527;-75
2021/12/06 12:46:41;;;;;;;8.87;3.93;;;6.90;74.30;;;;;;5008539;28;20795;-75
2021/12/06 12:49:14;;;;;;;4.93;2.90;;;7.00;74.30;;;;;;4970532;28;20458;-76
2021/12/06 12:51:48;;;;;;;6.60;3.13;;;6.80;73.70;;;;;;4966298;28;20889;-74
2021/12/06 12:54:29;;;;;;;5.33;3.77;;;6.70;73.90;;;;;;4966611;28;20538;-76
2021/12/06 12:57:00;;;;;;;6.50;4.07;;;6.70;74.80;;;;;;4963323;28;20835;-76
2021/12/06 12:59:29;;;;;;;8.13;4.80;;;6.70;74.60;;;;;;4960579;28;20510;-75
2021/12/06 13:02:20;;;;;;;6.47;3.93;;;6.70;74.50;;;;;;4969230;28;21000;-76
2021/12/06 13:04:57;;;;;;;10.97;4.60;;;6.80;74.90;;;;;;4968179;28;20434;-77
2021/12/06 13:07:32;;;;;;;7.10;3.80;;;6.90;74.60;;;;;;4966070;28;20457;-75
2021/12/06 13:10:19;;;;;;;5.73;3.90;;;7.00;74.50;;;;;;4990847;28;20494;-76
2021/12/06 13:13:04;;;;;;;5.70;3.47;;;7.00;74.50;;;;;;4992497;28;20434;-76
2021/12/06 13:15:56;;;;;;;13.60;6.87;;;7.10;73.60;;;;;;4963295;28;20552;-74